Time;durP1;ratioP1;P1;durP2;ratioP2;P2;SDS_P1;SDS_P2;PMS_P1;PMS_P2;Temp;Humidity;BMP_temperature;BMP_pressure;BME280_temperature;BME280_humidity;BME280_pressure;Samples;Min_cycle;Max_cycle;Signal;HPM_P1;HPM_P2
2021/04/02 00:00:47;;;;;;;14.23;6.72;;;;;;;7.54;61.84;101152.31;8915277;33;20700;-71
2021/04/02 00:05:50;;;;;;;11.32;5.90;;;;;;;7.64;61.78;101145.53;8889873;33;20253;-71
2021/04/02 00:10:55;;;;;;;11.07;6.85;;;;;;;7.63;61.60;101143.81;8914986;33;20272;-71
2021/04/02 00:15:58;;;;;;;9.27;6.35;;;;;;;7.58;61.79;101134.31;8915299;33;20323;-71
2021/04/02 00:21:05;;;;;;;12.32;6.97;;;;;;;7.66;61.69;101137.44;8915086;33;20260;-71
2021/04/02 00:26:09;;;;;;;10.77;6.85;;;;;;;7.68;61.70;101132.88;8914876;33;21553;-71
2021/04/02 00:31:13;;;;;;;14.13;7.88;;;;;;;7.59;61.92;101126.19;8913807;33;20320;-71
2021/04/02 00:36:16;;;;;;;16.38;7.60;;;;;;;7.52;62.12;101123.97;8914343;33;20252;-71
2021/04/02 00:41:20;;;;;;;12.05;7.38;;;;;;;7.56;62.17;101128.19;8914215;33;20237;-71
2021/04/02 00:46:24;;;;;;;15.43;7.88;;;;;;;7.60;62.32;101127.09;8913883;33;20328;-71
2021/04/02 00:51:28;;;;;;;16.25;7.80;;;;;;;7.62;61.90;101115.31;8913313;33;20814;-71
2021/04/02 00:56:31;;;;;;;11.05;7.10;;;;;;;7.55;61.92;101113.13;8912311;33;20225;-71
2021/04/02 01:01:34;;;;;;;13.77;6.45;;;;;;;7.57;61.78;101100.50;8888089;33;20293;-71
2021/04/02 01:06:37;;;;;;;12.82;7.15;;;;;;;7.55;61.74;101100.59;8913627;33;20229;-71
2021/04/02 01:11:40;;;;;;;13.80;6.78;;;;;;;7.50;61.57;101105.34;8887324;33;20225;-71
2021/04/02 01:16:46;;;;;;;13.40;6.50;;;;;;;7.50;61.33;101110.69;8852011;33;20273;-71
2021/04/02 01:21:54;;;;;;;15.27;6.70;;;;;;;7.47;61.50;101116.22;8852904;33;21405;-71
2021/04/02 01:27:21;;;;;;;11.52;6.78;;;;;;;7.36;62.08;101118.63;8851645;33;20219;-71
2021/04/02 01:32:29;;;;;;;12.43;6.97;;;;;;;7.30;62.17;101111.81;8851340;33;20689;-72
2021/04/02 01:37:38;;;;;;;12.60;7.35;;;;;;;7.32;62.28;101106.38;8851502;33;20218;-71
2021/04/02 01:42:43;;;;;;;14.82;7.70;;;;;;;7.18;62.55;101115.16;8851699;33;20261;-71
2021/04/02 01:47:51;;;;;;;10.38;7.07;;;;;;;7.02;63.12;101120.47;8851040;33;20230;-71
2021/04/02 01:52:56;;;;;;;11.82;7.50;;;;;;;7.02;63.30;101125.81;8851312;33;20275;-71
2021/04/02 01:57:58;;;;;;;12.02;7.60;;;;;;;6.94;63.39;101114.69;8852621;33;20325;-71
2021/04/02 02:03:09;;;;;;;14.00;8.20;;;;;;;6.84;63.91;101128.50;8851075;33;20601;-71
2021/04/02 02:08:14;;;;;;;16.38;8.02;;;;;;;6.85;64.16;101124.03;8852587;33;20226;-71
2021/04/02 02:13:23;;;;;;;16.25;7.78;;;;;;;6.91;63.83;101125.53;8853053;33;20237;-71
2021/04/02 02:18:38;;;;;;;16.13;8.07;;;;;;;6.96;63.74;101134.16;8887112;33;20242;-71
2021/04/02 02:23:44;;;;;;;15.75;8.48;;;;;;;6.99;63.73;101131.31;8849033;33;20290;-71
2021/04/02 02:28:48;;;;;;;15.80;8.00;;;;;;;6.76;63.88;101135.22;8912007;33;20340;-70
2021/04/02 02:33:53;;;;;;;12.45;7.30;;;;;;;6.75;64.16;101136.16;8885880;33;20237;-71
2021/04/02 02:39:09;;;;;;;16.13;8.07;;;;;;;6.81;63.92;101144.69;8886497;33;20282;-72
2021/04/02 02:44:14;;;;;;;14.30;8.73;;;;;;;6.74;63.97;101137.94;8909794;33;20226;-72
2021/04/02 02:49:20;;;;;;;18.85;9.35;;;;;;;6.79;64.00;101143.91;8886097;33;20222;-72
2021/04/02 02:54:31;;;;;;;20.73;10.38;;;;;;;6.81;63.95;101143.84;8886613;33;20225;-72
2021/04/02 02:59:36;;;;;;;16.27;8.65;;;;;;;6.69;64.03;101147.16;8891184;33;20652;-72
2021/04/02 03:04:50;;;;;;;19.55;9.60;;;;;;;6.61;64.24;101153.78;8890683;33;20357;-72
2021/04/02 03:09:57;;;;;;;19.67;10.25;;;;;;;6.38;64.60;101156.75;8890773;33;20234;-72
2021/04/02 03:15:04;;;;;;;17.55;9.63;;;;;;;6.25;64.84;101155.66;8915495;33;20225;-72
2021/04/02 03:20:10;;;;;;;20.40;9.90;;;;;;;6.29;65.16;101159.91;8915473;33;20214;-72
2021/04/02 03:25:17;;;;;;;18.60;9.88;;;;;;;6.41;65.03;101159.25;8889891;33;20268;-71
2021/04/02 03:30:28;;;;;;;19.38;11.07;;;;;;;6.33;64.88;101153.44;8915351;33;20234;-72
2021/04/02 03:35:37;;;;;;;19.10;10.75;;;;;;;6.11;65.37;101156.34;8889689;33;20375;-72
2021/04/02 03:40:41;;;;;;;18.80;11.30;;;;;;;6.15;65.66;101160.59;8890024;33;20361;-71
2021/04/02 03:45:50;;;;;;;22.27;11.13;;;;;;;6.27;65.26;101159.97;8889212;33;20734;-71
2021/04/02 03:50:59;;;;;;;19.73;10.73;;;;;;;6.15;65.38;101169.47;8889416;33;20222;-71
2021/04/02 03:56:07;;;;;;;18.50;11.52;;;;;;;6.16;65.55;101171.19;8889637;33;20241;-71
2021/04/02 04:01:17;;;;;;;19.85;10.68;;;;;;;6.21;65.51;101167.44;8890030;33;20264;-71
2021/04/02 04:06:23;;;;;;;19.63;10.82;;;;;;;6.26;65.44;101166.25;8913579;33;20286;-71
2021/04/02 04:11:32;;;;;;;22.67;11.50;;;;;;;6.23;65.25;101173.56;8888328;33;20226;-71
2021/04/02 04:16:39;;;;;;;20.15;11.68;;;;;;;6.03;65.68;101171.88;8913129;33;20248;-71
2021/04/02 04:21:45;;;;;;;20.92;11.52;;;;;;;5.93;65.97;101171.47;8913278;33;20217;-71
2021/04/02 04:26:58;;;;;;;24.90;12.45;;;;;;;5.91;66.26;101179.53;8888505;33;20241;-70
2021/04/02 04:32:01;;;;;;;15.82;10.75;;;;;;;5.86;66.41;101181.56;8914319;33;20279;-71
2021/04/02 04:37:06;;;;;;;22.25;11.60;;;;;;;5.89;66.45;101177.88;8915108;33;20772;-71
2021/04/02 04:42:11;;;;;;;20.83;11.65;;;;;;;5.87;66.30;101180.63;8913370;33;20233;-71
2021/04/02 04:47:14;;;;;;;23.27;11.60;;;;;;;5.94;66.22;101183.84;8913516;33;20233;-71
2021/04/02 04:52:21;;;;;;;21.53;11.13;;;;;;;5.95;66.30;101181.13;8863574;33;20265;-71
2021/04/02 04:57:24;;;;;;;22.80;11.52;;;;;;;5.88;66.28;101184.16;8911539;33;20264;-72
2021/04/02 05:02:29;;;;;;;18.87;10.97;;;;;;;5.75;66.52;101180.34;8913683;33;20632;-72
2021/04/02 05:07:36;;;;;;;19.75;11.93;;;;;;;5.76;66.50;101177.63;8912837;33;20227;-72
2021/04/02 05:12:40;;;;;;;23.90;11.90;;;;;;;5.87;66.48;101175.31;8912229;33;20604;-72
2021/04/02 05:17:43;;;;;;;23.23;13.23;;;;;;;5.92;65.98;101175.94;8887608;33;20287;-71
2021/04/02 05:22:47;;;;;;;21.93;12.43;;;;;;;5.89;66.18;101184.06;8912326;33;20217;-71
2021/04/02 05:27:49;;;;;;;22.30;12.37;;;;;;;5.90;66.17;101187.63;8912319;33;20708;-71
2021/04/02 05:32:51;;;;;;;21.10;11.68;;;;;;;5.88;66.34;101189.50;8911423;33;20827;-71
2021/04/02 05:37:54;;;;;;;21.83;12.07;;;;;;;5.95;66.31;101194.47;8912152;33;20229;-71
2021/04/02 05:43:04;;;;;;;23.75;11.95;;;;;;;6.04;66.10;101198.47;8911963;33;20793;-71
2021/04/02 05:48:09;;;;;;;20.60;11.83;;;;;;;6.03;65.85;101191.41;8911531;33;20226;-72
2021/04/02 05:53:13;;;;;;;22.40;11.73;;;;;;;6.04;65.83;101200.28;8911612;33;20225;-71
2021/04/02 05:58:15;;;;;;;20.87;11.57;;;;;;;5.87;66.45;101195.75;8911848;33;20753;-72
2021/04/02 06:03:18;;;;;;;20.97;11.57;;;;;;;5.93;66.20;101206.16;8911685;33;20220;-71
2021/04/02 06:08:21;;;;;;;22.85;11.43;;;;;;;6.05;66.06;101200.19;8911455;33;20741;-71
2021/04/02 06:13:24;;;;;;;18.52;11.15;;;;;;;6.06;65.87;101209.06;8910726;33;20742;-71
2021/04/02 06:18:26;;;;;;;24.75;13.02;;;;;;;5.78;66.66;101206.88;8885701;33;20240;-72
2021/04/02 06:23:33;;;;;;;22.65;11.85;;;;;;;5.96;66.45;101200.66;8907665;33;20229;-71
2021/04/02 06:28:38;;;;;;;23.17;12.05;;;;;;;6.12;66.02;101203.44;8911771;33;20302;-71
2021/04/02 06:33:42;;;;;;;23.70;12.30;;;;;;;6.08;66.09;101207.19;8916092;33;20224;-71
2021/04/02 06:38:48;;;;;;;23.43;13.10;;;;;;;6.17;66.06;101202.28;8917399;33;20296;-71
2021/04/02 06:43:52;;;;;;;25.43;13.23;;;;;;;6.12;65.97;101203.44;8913275;33;20214;-71
2021/04/02 06:48:57;;;;;;;28.87;13.33;;;;;;;6.01;66.45;101209.31;8864246;33;20233;-71
2021/04/02 06:54:02;;;;;;;27.93;13.23;;;;;;;5.67;67.57;101212.72;8854653;33;20739;-72
2021/04/02 06:59:04;;;;;;;27.80;14.65;;;;;;;5.70;67.75;101218.78;8856625;33;20234;-72
2021/04/02 07:04:07;;;;;;;28.00;12.67;;;;;;;5.62;68.04;101217.41;8855678;33;20230;-71
2021/04/02 07:09:11;;;;;;;36.37;15.03;;;;;;;6.01;68.00;101214.63;8862213;33;20754;-71
2021/04/02 07:14:14;;;;;;;23.23;10.85;;;;;;;6.49;66.99;101209.59;8915056;33;20234;-71
2021/04/02 07:19:17;;;;;;;16.85;10.02;;;;;;;6.69;65.51;101221.91;8916359;33;20232;-72
2021/04/02 07:24:20;;;;;;;26.08;10.50;;;;;;;6.89;64.48;101231.63;8915488;33;20229;-71
2021/04/02 07:29:25;;;;;;;22.83;11.55;;;;;;;6.78;63.89;101227.66;8885863;33;20243;-71
2021/04/02 07:34:28;;;;;;;19.77;9.70;;;;;;;6.68;64.35;101234.41;8886896;33;20650;-71
2021/04/02 07:39:31;;;;;;;29.05;10.60;;;;;;;6.63;64.20;101223.09;8855617;33;21516;-71
2021/04/02 07:44:37;;;;;;;18.38;9.35;;;;;;;6.80;64.09;101220.44;8817266;33;21456;-72
2021/04/02 07:49:42;;;;;;;15.55;9.80;;;;;;;6.63;63.82;101221.28;8855013;33;20230;-72
2021/04/02 07:54:46;;;;;;;15.88;10.20;;;;;;;6.57;64.44;101228.75;8854708;33;20233;-72
2021/04/02 07:59:48;;;;;;;18.13;9.57;;;;;;;6.72;63.67;101229.75;8854370;33;20218;-72
2021/04/02 08:04:55;;;;;;;15.75;8.90;;;;;;;6.89;63.22;101231.63;8853658;33;20249;-72
2021/04/02 08:10:01;;;;;;;14.93;9.38;;;;;;;7.10;62.33;101233.13;8853889;33;20222;-72
2021/04/02 08:15:13;;;;;;;12.80;7.60;;;;;;;7.04;61.40;101231.66;8854068;33;20226;-72
2021/04/02 08:20:18;;;;;;;16.08;8.88;;;;;;;7.33;61.63;101237.28;8855521;33;20214;-72
2021/04/02 08:25:23;;;;;;;12.90;8.10;;;;;;;7.24;61.13;101233.28;8854261;33;20229;-72
2021/04/02 08:30:26;;;;;;;16.77;8.60;;;;;;;7.53;60.28;101213.94;8855476;33;20230;-72
2021/04/02 08:35:28;;;;;;;12.90;7.30;;;;;;;7.82;59.51;101239.06;8854589;33;20234;-72
2021/04/02 08:40:35;;;;;;;15.13;6.97;;;;;;;7.80;58.94;101243.63;8854987;33;20241;-72
2021/04/02 08:45:39;;;;;;;14.48;6.10;;;;;;;7.77;57.58;101242.00;8854298;33;20222;-72
2021/04/02 08:50:49;;;;;;;8.88;5.43;;;;;;;7.58;56.74;101246.63;8854410;33;20229;-72
2021/04/02 08:55:54;;;;;;;8.07;5.18;;;;;;;7.71;56.93;101235.16;8853683;33;20661;-72
2021/04/02 09:00:56;;;;;;;8.48;4.95;;;;;;;7.82;56.50;101244.41;8836739;33;20225;-72
2021/04/02 09:05:59;;;;;;;18.92;4.75;;;;;;;7.72;56.31;101238.69;8853884;33;20218;-72
2021/04/02 09:11:02;;;;;;;8.18;4.80;;;;;;;7.55;57.09;101230.75;8854401;33;20230;-72
2021/04/02 09:16:07;;;;;;;8.48;4.63;;;;;;;7.15;57.48;101228.41;8853687;33;20230;-72
2021/04/02 09:21:09;;;;;;;9.77;5.20;;;;;;;7.13;57.80;101226.75;8853923;33;20258;-72
2021/04/02 09:26:12;;;;;;;11.00;5.15;;;;;;;6.91;58.15;101232.38;8853634;33;20245;-71
2021/04/02 09:31:21;;;;;;;8.05;5.50;;;;;;;7.00;59.01;101229.25;8853006;33;20221;-73
2021/04/02 09:36:26;;;;;;;8.77;5.10;;;;;;;6.99;58.69;101235.50;8876427;33;20226;-72
2021/04/02 09:41:29;;;;;;;9.18;5.85;;;;;;;6.91;59.43;101240.38;8853549;33;20214;-73
2021/04/02 09:46:34;;;;;;;14.93;6.60;;;;;;;6.42;61.07;101240.19;8854361;33;20221;-73
2021/04/02 09:51:40;;;;;;;17.45;5.47;;;;;;;6.28;60.97;101246.22;8851124;33;20222;-71
2021/04/02 09:56:46;;;;;;;12.13;6.40;;;;;;;6.67;60.00;101245.19;8852717;33;20669;-72
2021/04/02 10:01:49;;;;;;;10.50;5.30;;;;;;;7.01;59.24;101242.50;8852998;33;20269;-72
2021/04/02 10:06:51;;;;;;;11.70;5.57;;;;;;;6.88;57.80;101225.38;8851632;33;20227;-71
2021/04/02 10:11:54;;;;;;;13.10;5.60;;;;;;;7.02;57.47;101228.22;8852181;33;20230;-72
2021/04/02 10:16:56;;;;;;;9.93;6.15;;;;;;;7.17;55.89;101223.84;8911138;33;20234;-71
2021/04/02 10:21:59;;;;;;;6.90;5.03;;;;;;;7.37;54.90;101205.88;8881341;33;20232;-72
2021/04/02 10:27:02;;;;;;;8.57;4.70;;;;;;;7.10;55.74;101195.72;8880417;33;20226;-72
2021/04/02 10:32:06;;;;;;;8.35;4.50;;;;;;;7.92;54.81;101192.94;8852759;33;20253;-72
2021/04/02 10:37:08;;;;;;;8.73;4.85;;;;;;;8.33;52.52;101191.50;8852594;33;20616;-72
2021/04/02 10:42:12;;;;;;;16.20;5.28;;;;;;;8.17;52.60;101191.53;8852226;33;20234;-72
2021/04/02 10:47:14;;;;;;;9.90;4.05;;;;;;;8.28;52.50;101204.31;8866888;33;20230;-72
2021/04/02 10:52:16;;;;;;;9.43;4.30;;;;;;;7.76;52.84;101185.88;8861251;33;20230;-71
2021/04/02 10:57:20;;;;;;;5.32;3.67;;;;;;;8.79;49.77;101197.69;8884568;33;20256;-72
2021/04/02 11:02:22;;;;;;;4.80;3.58;;;;;;;8.89;48.54;101200.69;8911247;33;20245;-72
2021/04/02 11:07:24;;;;;;;5.50;3.70;;;;;;;9.11;48.18;101188.66;8910939;33;20249;-71
2021/04/02 11:12:29;;;;;;;7.78;3.60;;;;;;;9.40;48.06;101208.25;8919674;33;20240;-72
2021/04/02 11:17:31;;;;;;;16.77;4.53;;;;;;;9.62;46.59;101197.88;8889851;33;20737;-73
2021/04/02 11:22:33;;;;;;;7.85;3.33;;;;;;;8.87;47.73;101216.00;8917196;33;20279;-71
2021/04/02 11:27:37;;;;;;;5.25;3.63;;;;;;;8.50;48.73;101228.91;8916236;33;20248;-72
2021/04/02 11:32:39;;;;;;;5.90;2.95;;;;;;;8.32;50.28;101224.59;8915776;33;20279;-72
2021/04/02 11:37:42;;;;;;;8.70;4.20;;;;;;;8.39;49.32;101202.75;8916016;33;20228;-73
2021/04/02 11:42:45;;;;;;;3.85;3.03;;;;;;;8.36;49.60;101183.28;8915399;33;20225;-73
2021/04/02 11:47:47;;;;;;;14.13;4.38;;;;;;;8.89;47.32;101178.41;8915764;33;20777;-73
2021/04/02 11:52:50;;;;;;;9.50;3.42;;;;;;;8.76;48.42;101200.56;8916119;33;20226;-73
2021/04/02 11:57:53;;;;;;;7.68;3.38;;;;;;;8.44;48.83;101199.78;8916333;33;20225;-72
2021/04/02 12:02:55;;;;;;;9.25;3.03;;;;;;;8.36;49.09;101210.97;8877933;33;20230;-73
2021/04/02 12:07:58;;;;;;;6.75;2.92;;;;;;;7.92;49.69;101190.28;8857927;33;20226;-73
2021/04/02 12:13:01;;;;;;;8.07;3.33;;;;;;;8.78;48.28;101185.25;8914794;33;20225;-73
2021/04/02 12:18:05;;;;;;;7.47;2.97;;;;;;;8.81;47.46;101184.22;8900030;33;20234;-73
2021/04/02 12:23:07;;;;;;;4.78;2.90;;;;;;;9.12;47.33;101195.72;8913188;33;20344;-72
2021/04/02 12:28:10;;;;;;;6.57;3.50;;;;;;;8.95;46.97;101203.00;8887051;33;20731;-71
2021/04/02 12:33:13;;;;;;;4.93;2.75;;;;;;;8.86;47.03;101192.84;8855962;33;20719;-72
2021/04/02 12:38:15;;;;;;;5.63;2.83;;;;;;;8.70;47.33;101182.19;8902793;33;20698;-72
2021/04/02 12:43:18;;;;;;;6.22;4.20;;;;;;;8.63;47.66;101182.66;8906388;33;20233;-72
2021/04/02 12:48:21;;;;;;;7.13;3.28;;;;;;;9.03;47.24;101168.53;8912913;33;20217;-71
2021/04/02 12:53:23;;;;;;;8.50;4.00;;;;;;;9.05;46.38;101152.34;8912863;33;21488;-72
2021/04/02 12:58:27;;;;;;;9.27;3.55;;;;;;;9.03;47.14;101154.28;8908254;33;20217;-72
2021/04/02 13:03:30;;;;;;;4.25;2.63;;;;;;;9.05;46.37;101144.31;8911118;33;20225;-72
2021/04/02 13:08:32;;;;;;;5.80;3.10;;;;;;;8.82;47.56;101105.56;8912850;33;20722;-72
2021/04/02 13:13:36;;;;;;;9.13;3.95;;;;;;;9.62;46.29;101103.13;8912150;33;20431;-72
2021/04/02 13:18:38;;;;;;;7.97;2.97;;;;;;;10.06;46.04;101115.44;8884721;33;21492;-72
2021/04/02 13:23:43;;;;;;;8.75;3.22;;;;;;;10.05;44.84;101111.91;8893408;33;20369;-72
2021/04/02 13:28:46;;;;;;;11.13;3.15;;;;;;;10.45;44.94;101078.78;8882435;33;20730;-72
2021/04/02 13:33:48;;;;;;;12.50;3.10;;;;;;;10.61;44.69;101084.78;8851493;33;20233;-72
2021/04/02 13:38:51;;;;;;;8.13;4.18;;;;;;;9.89;45.80;101066.44;8873982;33;20226;-72
2021/04/02 13:43:54;;;;;;;7.10;3.42;;;;;;;10.12;44.93;101066.72;8909006;33;20229;-72
2021/04/02 13:48:56;;;;;;;8.07;3.65;;;;;;;10.39;44.88;101072.00;8861252;33;20383;-72
2021/04/02 13:53:59;;;;;;;9.70;3.38;;;;;;;10.25;45.28;101081.00;8911973;33;20718;-71
2021/04/02 13:59:02;;;;;;;6.15;3.38;;;;;;;9.03;47.50;101096.19;8911813;33;20232;-72
2021/04/02 14:04:05;;;;;;;7.13;3.20;;;;;;;8.31;49.58;101103.28;8911564;33;20645;-72
2021/04/02 14:09:07;;;;;;;8.40;3.05;;;;;;;8.18;49.94;101111.16;8912308;33;20228;-72
2021/04/02 14:14:10;;;;;;;9.70;3.78;;;;;;;8.30;50.31;101111.38;8916393;33;20213;-72
2021/04/02 14:19:13;;;;;;;6.55;3.72;;;;;;;7.91;51.46;101123.50;8915392;33;20829;-72
2021/04/02 14:24:16;;;;;;;7.05;2.88;;;;;;;7.86;52.22;101123.75;8910567;33;20229;-72
2021/04/02 14:29:19;;;;;;;7.50;2.83;;;;;;;7.60;52.11;101135.97;8911193;33;20221;-73
2021/04/02 14:34:21;;;;;;;5.47;2.78;;;;;;;7.57;52.19;101138.81;8911376;33;20232;-71
2021/04/02 14:39:24;;;;;;;9.93;3.72;;;;;;;7.65;51.66;101130.34;8898122;33;20256;-72
2021/04/02 14:44:27;;;;;;;7.18;2.88;;;;;;;7.56;51.82;101120.19;8879320;33;20214;-72
2021/04/02 14:49:29;;;;;;;6.55;2.95;;;;;;;7.60;51.97;101114.56;8880848;33;20222;-72
2021/04/02 14:54:31;;;;;;;4.97;2.80;;;;;;;6.84;54.25;101115.16;8883889;33;20639;-71
2021/04/02 14:59:34;;;;;;;6.65;2.95;;;;;;;7.41;52.65;101104.06;8899132;33;20226;-72
2021/04/02 15:04:37;;;;;;;7.25;3.75;;;;;;;7.54;52.43;101101.53;8916253;33;20330;-72
2021/04/02 15:09:39;;;;;;;8.93;3.03;;;;;;;7.43;52.09;101094.16;8915773;33;20233;-72
2021/04/02 15:14:42;;;;;;;6.70;3.33;;;;;;;7.87;51.54;101098.75;8892814;33;20288;-72
2021/04/02 15:19:44;;;;;;;7.55;3.38;;;;;;;7.58;50.97;101087.06;8899902;33;20222;-72
2021/04/02 15:24:47;;;;;;;9.82;3.00;;;;;;;7.43;51.28;101077.22;8915420;33;20228;-72
2021/04/02 15:29:50;;;;;;;10.82;3.00;;;;;;;7.91;51.50;101076.19;8890124;33;20234;-73
2021/04/02 15:34:52;;;;;;;8.05;2.80;;;;;;;7.74;50.23;101068.31;8914958;33;20252;-73
2021/04/02 15:39:54;;;;;;;9.00;4.00;;;;;;;8.08;49.37;101063.63;8915643;33;20280;-72
2021/04/02 15:44:57;;;;;;;5.82;2.88;;;;;;;7.92;49.71;101069.88;8914651;33;21388;-71
2021/04/02 15:49:59;;;;;;;5.43;2.50;;;;;;;7.26;50.35;101060.31;8914636;33;20652;-71
2021/04/02 15:55:01;;;;;;;8.20;2.65;;;;;;;7.72;50.32;101063.03;8922745;33;20236;-72
2021/04/02 16:00:06;;;;;;;4.50;2.58;;;;;;;8.01;49.37;101072.97;8914352;33;20214;-72
2021/04/02 16:05:15;;;;;;;6.72;2.70;;;;;;;7.69;50.20;101070.38;8915777;33;20236;-72
2021/04/02 16:10:18;;;;;;;6.10;2.60;;;;;;;7.90;49.87;101066.47;8910799;33;21515;-72
2021/04/02 16:15:22;;;;;;;7.00;2.78;;;;;;;8.01;49.62;101067.63;8904832;33;20241;-72
2021/04/02 16:20:25;;;;;;;3.60;2.70;;;;;;;7.54;49.95;101071.25;8913639;33;20225;-73
2021/04/02 16:25:28;;;;;;;6.15;3.10;;;;;;;7.63;51.03;101065.41;8913965;33;21559;-73
2021/04/02 16:30:31;;;;;;;6.53;2.22;;;;;;;7.58;51.19;101060.31;8914320;33;20879;-72
2021/04/02 16:35:34;;;;;;;6.40;2.78;;;;;;;7.34;51.49;101051.03;8902986;33;20653;-73
2021/04/02 16:40:38;;;;;;;3.47;2.33;;;;;;;7.09;51.68;101043.53;8879961;33;20231;-73
2021/04/02 16:45:41;;;;;;;4.43;2.40;;;;;;;7.00;52.66;101032.41;8852639;33;20322;-73
2021/04/02 16:50:43;;;;;;;4.40;2.20;;;;;;;6.92;52.14;101031.13;8880908;33;20623;-73
2021/04/02 16:55:45;;;;;;;5.70;2.45;;;;;;;7.22;50.74;101039.22;8855829;33;20226;-72
2021/04/02 17:00:48;;;;;;;4.95;3.10;;;;;;;7.23;50.98;101031.09;8816545;33;20628;-73
2021/04/02 17:05:50;;;;;;;5.22;2.50;;;;;;;7.08;51.32;101037.34;8815380;33;20445;-73
2021/04/02 17:10:53;;;;;;;3.05;2.20;;;;;;;6.97;51.92;101021.06;8852342;33;20256;-72
2021/04/02 17:15:58;;;;;;;2.25;2.05;;;;;;;7.00;52.27;101023.56;8877882;33;20222;-72
2021/04/02 17:21:00;;;;;;;7.65;2.70;;;;;;;6.53;52.79;101035.00;8912202;33;20212;-72
2021/04/02 17:26:03;;;;;;;9.40;2.42;;;;;;;6.71;52.85;101025.13;8878552;33;20226;-72
2021/04/02 17:31:07;;;;;;;3.45;2.58;;;;;;;6.56;53.59;101027.69;8814738;33;20226;-72
2021/04/02 17:36:09;;;;;;;4.82;2.13;;;;;;;6.49;54.02;101038.75;8893816;33;20229;-72
2021/04/02 17:41:11;;;;;;;5.45;2.30;;;;;;;6.35;54.63;101032.34;8886144;33;20308;-72
2021/04/02 17:46:14;;;;;;;4.30;2.30;;;;;;;6.44;55.00;101039.00;8910928;33;21264;-73
2021/04/02 17:51:17;;;;;;;4.68;1.70;;;;;;;6.50;55.31;101037.81;8910426;33;20728;-72
2021/04/02 17:56:19;;;;;;;3.60;1.80;;;;;;;6.31;55.51;101053.97;8910106;33;20256;-72
2021/04/02 18:01:22;;;;;;;3.78;1.67;;;;;;;6.28;55.61;101044.31;8910049;33;20217;-73
2021/04/02 18:06:24;;;;;;;6.15;2.20;;;;;;;6.02;56.96;101060.78;8863947;33;20249;-73
2021/04/02 18:11:27;;;;;;;4.00;2.08;;;;;;;6.02;57.58;101055.47;8880345;33;20232;-72
2021/04/02 18:16:30;;;;;;;3.38;1.65;;;;;;;5.85;58.42;101056.31;8882051;33;20282;-73
2021/04/02 18:21:32;;;;;;;4.57;2.58;;;;;;;6.09;58.28;101052.41;8886999;33;20642;-72
2021/04/02 18:26:34;;;;;;;3.33;1.60;;;;;;;6.15;58.31;101056.56;8909320;33;20234;-72
2021/04/02 18:31:37;;;;;;;6.97;2.33;;;;;;;5.99;58.61;101068.97;8866930;33;20711;-72
2021/04/02 18:36:40;;;;;;;2.72;2.28;;;;;;;5.98;59.06;101068.09;8856536;33;20233;-72
2021/04/02 18:41:42;;;;;;;2.88;2.15;;;;;;;5.95;59.39;101068.22;8856763;33;20237;-72
2021/04/02 18:46:46;;;;;;;4.40;2.42;;;;;;;5.91;59.40;101064.88;8864688;33;20229;-71
2021/04/02 18:51:51;;;;;;;3.47;2.20;;;;;;;5.64;60.34;101071.59;8854809;33;20226;-73
2021/04/02 18:56:55;;;;;;;4.70;2.00;;;;;;;5.85;59.93;101064.31;8813530;33;20295;-72
2021/04/02 19:01:59;;;;;;;5.57;2.20;;;;;;;5.92;59.96;101065.72;8854787;33;20214;-73
2021/04/02 19:07:02;;;;;;;3.70;2.42;;;;;;;5.81;60.86;101065.41;8855898;33;20715;-72
2021/04/02 19:12:06;;;;;;;5.10;2.83;;;;;;;5.36;62.18;101074.75;8856426;33;20225;-73
2021/04/02 19:17:09;;;;;;;4.18;2.45;;;;;;;5.74;63.44;101075.53;8855927;33;20233;-72
2021/04/02 19:22:11;;;;;;;4.53;2.72;;;;;;;5.68;64.40;101078.50;8852591;33;20241;-72
2021/04/02 19:27:13;;;;;;;4.45;2.85;;;;;;;5.64;64.53;101076.91;8855789;33;20256;-73
2021/04/02 19:32:16;;;;;;;6.50;2.57;;;;;;;5.62;64.38;101087.66;8855746;33;20218;-74
2021/04/02 19:37:20;;;;;;;6.68;3.17;;;;;;;5.27;66.03;101092.91;8855666;33;20328;-72
2021/04/02 19:42:22;;;;;;;8.30;3.67;;;;;;;5.15;69.88;101093.47;8857257;33;20218;-72
2021/04/02 19:47:25;;;;;;;8.00;3.72;;;;;;;5.04;69.72;101088.63;8856419;33;20715;-73
2021/04/02 19:52:28;;;;;;;5.20;3.10;;;;;;;4.93;69.35;101098.03;8855475;33;20810;-73
2021/04/02 19:57:31;;;;;;;7.00;2.75;;;;;;;4.93;68.81;101096.22;8848268;33;21052;-73
2021/04/02 20:02:34;;;;;;;7.23;3.43;;;;;;;4.89;69.28;101093.81;8855862;33;20229;-73
2021/04/02 20:07:37;;;;;;;21.92;6.85;;;;;;;4.73;69.90;101091.81;8855880;33;20230;-72
2021/04/02 20:12:40;;;;;;;9.10;4.10;;;;;;;4.64;70.90;101094.06;8855219;33;20233;-73
2021/04/02 20:17:43;;;;;;;9.90;3.60;;;;;;;4.46;70.47;101093.91;8854430;33;20889;-73
2021/04/02 20:22:46;;;;;;;10.27;4.53;;;;;;;4.31;70.61;101097.28;8847112;33;20637;-71
2021/04/02 20:27:49;;;;;;;10.00;3.87;;;;;;;4.08;70.92;101106.22;8854672;33;20242;-71
2021/04/02 20:32:53;;;;;;;8.20;3.60;;;;;;;3.69;71.06;101106.97;8855534;33;20233;-75
2021/04/02 20:37:56;;;;;;;9.20;3.50;;;;;;;3.66;71.15;101102.63;8852041;33;20234;-72
2021/04/02 20:42:59;;;;;;;9.43;4.40;;;;;;;3.59;71.44;101108.25;8852930;33;20230;-72
2021/04/02 20:48:03;;;;;;;14.47;4.53;;;;;;;3.69;71.89;101109.63;8854206;33;20276;-73
2021/04/02 20:53:05;;;;;;;15.67;4.90;;;;;;;3.67;71.96;101108.81;8854386;33;20226;-73
2021/04/02 20:58:07;;;;;;;12.53;5.13;;;;;;;3.68;72.26;101106.09;8854352;33;20265;-74
2021/04/02 21:03:11;;;;;;;11.40;5.00;;;;;;;3.64;72.74;101100.97;8852697;33;20224;-73
2021/04/02 21:08:13;;;;;;;15.27;5.27;;;;;;;3.66;73.31;101107.09;8850175;33;20237;-74
2021/04/02 21:13:15;;;;;;;17.33;5.00;;;;;;;3.60;73.65;101110.88;8851323;33;20646;-73
2021/04/02 21:18:18;;;;;;;19.27;6.00;;;;;;;3.93;73.58;101110.41;8854974;33;20231;-73
2021/04/02 21:23:20;;;;;;;13.50;4.93;;;;;;;3.88;73.36;101112.38;8913617;33;20229;-72
2021/04/02 21:28:23;;;;;;;16.20;6.00;;;;;;;3.91;73.26;101114.91;8913840;33;21374;-71
2021/04/02 21:33:26;;;;;;;12.97;5.67;;;;;;;4.20;72.81;101112.81;8913235;33;20936;-71
2021/04/02 21:38:29;;;;;;;17.23;5.37;;;;;;;4.29;72.15;101117.75;8912958;33;20836;-72
2021/04/02 21:43:31;;;;;;;13.83;5.53;;;;;;;4.34;71.91;101107.78;8912063;33;20229;-71
2021/04/02 21:48:35;;;;;;;12.97;5.30;;;;;;;4.23;71.70;101105.59;8882491;33;20229;-72
2021/04/02 21:53:37;;;;;;;17.00;5.60;;;;;;;4.25;71.74;101111.72;8913190;33;20230;-71
2021/04/02 21:58:39;;;;;;;16.03;5.00;;;;;;;4.15;71.29;101113.88;8913662;33;21398;-72
2021/04/02 22:03:42;;;;;;;16.63;5.73;;;;;;;4.50;71.29;101122.13;8912173;33;20217;-71
2021/04/02 22:08:45;;;;;;;20.03;5.77;;;;;;;4.57;70.67;101128.03;8913069;33;20221;-72
2021/04/02 22:13:47;;;;;;;14.73;5.00;;;;;;;4.39;70.90;101130.59;8912897;33;20320;-71
2021/04/02 22:18:50;;;;;;;21.67;7.20;;;;;;;4.39;71.12;101140.38;8912590;33;20234;-71
2021/04/02 22:23:54;;;;;;;13.37;5.10;;;;;;;4.31;72.09;101139.84;8912500;33;20320;-71
2021/04/02 22:28:57;;;;;;;9.77;3.90;;;;;;;4.34;73.32;101143.22;8887482;33;20261;-71
2021/04/02 22:34:01;;;;;;;10.87;4.43;;;;;;;3.79;74.27;101136.69;8912239;33;20668;-72
2021/04/02 22:39:07;;;;;;;8.30;3.27;;;;;;;3.63;74.27;101145.28;8912194;33;20229;-72
2021/04/02 22:44:09;;;;;;;9.63;3.20;;;;;;;3.73;74.68;101151.09;8911836;33;20224;-71
2021/04/02 22:49:13;;;;;;;6.60;3.00;;;;;;;3.73;74.04;101144.00;8911992;33;20225;-72
2021/04/02 22:54:15;;;;;;;9.87;4.00;;;;;;;3.67;73.41;101143.34;8911825;33;20264;-72
2021/04/02 22:59:18;;;;;;;10.97;3.17;;;;;;;3.75;74.39;101140.38;8911926;33;20755;-72
2021/04/02 23:04:21;;;;;;;10.30;3.17;;;;;;;3.70;73.96;101136.16;8911567;33;20260;-72
2021/04/02 23:09:23;;;;;;;9.00;3.50;;;;;;;3.66;73.47;101131.00;8911754;33;20234;-71
2021/04/02 23:14:25;;;;;;;14.20;4.40;;;;;;;3.56;73.61;101125.19;8905014;33;20230;-71
2021/04/02 23:19:28;;;;;;;7.37;3.23;;;;;;;3.46;73.49;101127.34;8879328;33;20225;-73
2021/04/02 23:24:30;;;;;;;10.00;4.13;;;;;;;3.24;73.10;101134.44;8916444;33;20833;-72
2021/04/02 23:29:32;;;;;;;11.87;3.37;;;;;;;3.34;73.29;101138.44;8916852;33;20225;-72
2021/04/02 23:34:35;;;;;;;14.47;3.90;;;;;;;3.20;73.36;101143.44;8916057;33;20226;-72